Time;durP1;ratioP1;P1;durP2;ratioP2;P2;SDS_P1;SDS_P2;PMS_P1;PMS_P2;Temp;Humidity;BMP_temperature;BMP_pressure;BME280_temperature;BME280_humidity;BME280_pressure;Samples;Min_cycle;Max_cycle;Signal;HPM_P1;HPM_P2
2023/06/27 00:01:56;;;;;;;1.37;0.52;;;23.10;39.40;;;;;;2282797;55;20927;-67
2023/06/27 00:04:24;;;;;;;1.35;0.52;;;23.10;39.50;;;;;;2516018;55;20942;-68
2023/06/27 00:06:50;;;;;;;1.17;0.40;;;23.10;39.60;;;;;;2514864;55;20975;-68
2023/06/27 00:09:17;;;;;;;3.47;0.70;;;23.20;39.70;;;;;;2516420;55;21020;-69
2023/06/27 00:11:44;;;;;;;1.75;0.50;;;23.10;39.60;;;;;;2283297;55;20964;-69
2023/06/27 00:14:13;;;;;;;1.90;0.52;;;23.10;39.60;;;;;;2513012;55;21867;-69
2023/06/27 00:16:40;;;;;;;1.48;0.57;;;23.10;39.70;;;;;;2503751;55;20963;-69
2023/06/27 00:19:08;;;;;;;1.90;0.55;;;23.10;39.70;;;;;;2515083;54;20969;-68
2023/06/27 00:21:35;;;;;;;2.35;0.57;;;23.10;39.70;;;;;;2529051;54;20975;-68
2023/06/27 00:24:03;;;;;;;1.62;0.65;;;23.10;39.80;;;;;;2520115;54;20949;-68
2023/06/27 00:26:29;;;;;;;1.75;0.50;;;23.00;39.80;;;;;;2492032;55;22366;-69
2023/06/27 00:28:58;;;;;;;3.53;0.70;;;23.00;39.80;;;;;;2485556;55;21095;-69
2023/06/27 00:31:25;;;;;;;2.05;0.62;;;23.00;40.00;;;;;;2484630;55;21005;-68
2023/06/27 00:33:51;;;;;;;1.48;0.55;;;23.00;39.90;;;;;;2270052;55;20997;-69
2023/06/27 00:36:18;;;;;;;2.20;0.70;;;23.00;40.00;;;;;;2500468;55;20923;-69
2023/06/27 00:38:44;;;;;;;1.70;0.62;;;23.00;40.10;;;;;;2480497;55;20977;-68
2023/06/27 00:41:11;;;;;;;2.42;0.90;;;22.90;40.00;;;;;;2282773;55;21408;-69
2023/06/27 00:43:37;;;;;;;1.60;0.60;;;22.90;40.10;;;;;;2516113;55;20974;-70
2023/06/27 00:46:06;;;;;;;1.83;0.40;;;22.90;40.10;;;;;;2515670;55;21013;-67
2023/06/27 00:48:35;;;;;;;1.48;0.57;;;22.80;40.10;;;;;;2298300;55;21508;-69
2023/06/27 00:51:03;;;;;;;1.95;0.47;;;22.80;40.20;;;;;;2511655;55;21061;-69
2023/06/27 00:53:30;;;;;;;1.60;0.50;;;22.80;40.20;;;;;;2512247;54;20932;-68
2023/06/27 00:55:56;;;;;;;2.72;0.70;;;22.70;40.20;;;;;;2547477;54;20924;-69
2023/06/27 00:58:26;;;;;;;2.67;0.70;;;22.80;40.30;;;;;;2282008;55;21058;-70
2023/06/27 01:00:52;;;;;;;2.45;0.77;;;22.70;40.90;;;;;;2523242;54;21019;-67
2023/06/27 01:03:18;;;;;;;2.25;0.60;;;22.70;40.30;;;;;;2547435;54;21789;-69
2023/06/27 01:05:45;;;;;;;1.90;0.70;;;22.60;40.90;;;;;;2547241;54;20987;-70
2023/06/27 01:08:26;;;;;;;2.78;0.60;;;22.60;40.30;;;;;;2308852;55;21768;-68
2023/06/27 01:11:02;;;;;;;1.92;0.60;;;22.60;40.50;;;;;;2547040;54;21901;-68
2023/06/27 01:13:50;;;;;;;2.58;0.62;;;22.60;40.50;;;;;;2527763;54;20925;-69
2023/06/27 01:16:18;;;;;;;1.80;0.60;;;22.50;40.70;;;;;;2514140;54;20955;-69
2023/06/27 01:18:45;;;;;;;2.62;0.65;;;22.50;40.40;;;;;;2547314;54;21023;-68
2023/06/27 01:21:12;;;;;;;2.50;0.70;;;22.50;40.50;;;;;;2548121;54;21421;-70
2023/06/27 01:24:12;;;;;;;1.75;0.60;;;22.40;40.60;;;;;;2307901;55;20984;-69
2023/06/27 01:26:38;;;;;;;2.05;0.70;;;22.40;40.90;;;;;;2547325;54;20963;-67
2023/06/27 01:29:06;;;;;;;2.55;0.60;;;22.40;40.60;;;;;;2546766;54;21023;-69
2023/06/27 01:33:04;;;;;;;1.58;0.57;;;22.30;40.60;;;;;;2308927;55;20975;-69
2023/06/27 01:35:43;;;;;;;1.67;0.60;;;22.30;41.00;;;;;;2308807;55;20932;-68
2023/06/27 01:38:19;;;;;;;0.90;0.40;;;22.30;40.70;;;;;;2547085;54;20924;-68
2023/06/27 01:40:48;;;;;;;2.87;1.10;;;22.30;40.80;;;;;;2308884;55;20944;-68
2023/06/27 01:43:14;;;;;;;1.70;0.62;;;22.20;40.90;;;;;;2308179;55;20943;-68
2023/06/27 01:45:41;;;;;;;1.92;0.70;;;22.20;40.90;;;;;;2308138;55;21380;-68
2023/06/27 01:48:07;;;;;;;1.75;0.70;;;22.20;41.00;;;;;;2308862;55;21011;-69
2023/06/27 01:50:34;;;;;;;1.83;0.50;;;22.20;41.20;;;;;;2548421;54;20983;-69
2023/06/27 01:53:02;;;;;;;1.30;0.60;;;22.10;41.10;;;;;;2547428;54;20920;-69
2023/06/27 01:55:29;;;;;;;1.55;0.50;;;22.10;41.20;;;;;;2308900;55;21003;-69
2023/06/27 01:57:57;;;;;;;2.05;0.60;;;22.10;41.30;;;;;;2308213;55;20964;-68
2023/06/27 02:00:24;;;;;;;2.12;0.60;;;22.10;41.30;;;;;;2547457;54;20935;-69
2023/06/27 02:02:51;;;;;;;1.70;0.50;;;22.10;41.50;;;;;;2547438;54;21015;-69
2023/06/27 02:05:18;;;;;;;2.87;0.60;;;22.00;41.50;;;;;;2547378;54;20940;-68
2023/06/27 02:07:46;;;;;;;1.35;0.55;;;22.00;41.50;;;;;;2308639;55;20995;-69
2023/06/27 02:10:12;;;;;;;1.75;0.70;;;22.00;41.60;;;;;;2547425;54;20972;-70
2023/06/27 02:12:40;;;;;;;3.03;0.70;;;22.00;41.70;;;;;;2547831;54;20916;-68
2023/06/27 02:15:07;;;;;;;2.03;0.60;;;22.00;41.70;;;;;;2308708;55;21039;-68
2023/06/27 02:17:34;;;;;;;1.87;0.60;;;22.00;41.80;;;;;;2308789;55;21016;-70
2023/06/27 02:20:00;;;;;;;2.20;0.70;;;22.00;41.90;;;;;;2308875;55;20960;-68
2023/06/27 02:22:27;;;;;;;2.20;0.62;;;22.00;42.00;;;;;;2542715;54;21469;-69
2023/06/27 02:24:53;;;;;;;1.85;0.60;;;22.00;42.10;;;;;;2513466;54;20979;-67
2023/06/27 02:27:19;;;;;;;2.33;0.68;;;21.90;42.00;;;;;;2518980;54;21418;-69
2023/06/27 02:29:46;;;;;;;1.37;0.57;;;21.90;42.20;;;;;;2540443;54;21020;-69
2023/06/27 02:32:15;;;;;;;2.53;0.80;;;22.00;42.30;;;;;;2547647;54;20924;-69
2023/06/27 02:34:41;;;;;;;2.05;0.70;;;22.00;42.40;;;;;;2547211;54;20979;-69
2023/06/27 02:37:10;;;;;;;2.45;1.00;;;21.90;42.20;;;;;;2531840;54;21064;-68
2023/06/27 02:39:39;;;;;;;2.87;0.90;;;21.90;42.50;;;;;;2529277;54;20988;-69
2023/06/27 02:42:06;;;;;;;2.33;0.93;;;21.90;42.60;;;;;;2546980;54;21023;-68
2023/06/27 02:44:32;;;;;;;3.37;0.80;;;21.90;42.60;;;;;;2544280;54;21784;-68
2023/06/27 02:46:59;;;;;;;1.42;0.60;;;21.90;43.20;;;;;;2545580;54;20959;-67
2023/06/27 02:49:28;;;;;;;2.15;0.75;;;21.90;42.60;;;;;;2544759;54;21565;-69
2023/06/27 02:51:55;;;;;;;2.80;0.70;;;21.90;42.60;;;;;;2514651;54;20947;-67
2023/06/27 02:54:21;;;;;;;2.12;0.80;;;21.90;42.60;;;;;;2546521;54;21019;-69
2023/06/27 02:56:47;;;;;;;3.20;0.75;;;21.90;42.60;;;;;;2547147;54;20976;-69
2023/06/27 02:59:14;;;;;;;1.75;0.73;;;21.90;42.70;;;;;;2283003;55;20942;-67
2023/06/27 03:01:41;;;;;;;3.83;0.80;;;21.90;43.10;;;;;;2520838;54;21006;-68
2023/06/27 03:04:11;;;;;;;1.80;0.70;;;21.80;43.00;;;;;;2298385;55;20967;-69
2023/06/27 03:06:44;;;;;;;2.65;0.80;;;21.90;43.60;;;;;;2546687;54;21020;-70
2023/06/27 03:09:11;;;;;;;1.90;0.62;;;21.90;43.00;;;;;;2546895;54;20968;-68
2023/06/27 03:11:37;;;;;;;1.92;0.70;;;21.90;43.10;;;;;;2547277;54;20984;-69
2023/06/27 03:14:04;;;;;;;2.03;0.85;;;21.80;43.10;;;;;;2308361;55;21011;-67
2023/06/27 03:16:31;;;;;;;2.47;0.70;;;21.80;43.10;;;;;;2308199;55;21027;-68
2023/06/27 03:18:59;;;;;;;2.72;0.70;;;21.80;43.20;;;;;;2547194;54;20987;-68
2023/06/27 03:21:25;;;;;;;1.85;0.60;;;21.80;43.30;;;;;;2308605;55;21091;-68
2023/06/27 03:23:52;;;;;;;1.65;0.62;;;21.90;43.30;;;;;;2308614;55;21500;-68
2023/06/27 03:26:23;;;;;;;2.33;0.70;;;21.90;43.30;;;;;;2547651;54;20955;-68
2023/06/27 03:28:49;;;;;;;1.90;0.73;;;21.90;43.30;;;;;;2547372;54;21048;-67
2023/06/27 03:31:15;;;;;;;2.30;0.70;;;21.90;43.30;;;;;;2547603;54;21283;-68
2023/06/27 03:33:42;;;;;;;1.50;0.55;;;21.90;43.90;;;;;;2308659;55;21004;-68
2023/06/27 03:36:09;;;;;;;1.52;0.60;;;21.90;43.30;;;;;;2541529;54;21104;-67
2023/06/27 03:38:40;;;;;;;3.00;0.70;;;21.90;43.30;;;;;;2519113;54;20940;-68
2023/06/27 03:41:27;;;;;;;2.55;0.80;;;21.90;43.30;;;;;;2511150;54;21798;-68
2023/06/27 03:43:53;;;;;;;2.42;0.68;;;21.90;43.30;;;;;;2547349;54;21011;-68
2023/06/27 03:46:22;;;;;;;1.75;0.70;;;21.90;43.30;;;;;;2547990;54;20960;-67
2023/06/27 03:48:53;;;;;;;1.70;0.60;;;21.90;43.30;;;;;;2530135;54;21454;-67
2023/06/27 03:51:19;;;;;;;1.73;0.60;;;21.90;43.30;;;;;;2286192;56;21021;-68
2023/06/27 03:53:49;;;;;;;1.48;0.60;;;21.90;43.40;;;;;;2294991;55;21054;-67
2023/06/27 03:56:16;;;;;;;2.78;0.80;;;21.90;43.40;;;;;;2308942;55;20980;-68
2023/06/27 03:58:42;;;;;;;1.87;0.60;;;21.90;43.40;;;;;;2547502;54;20928;-67
2023/06/27 04:01:11;;;;;;;2.65;0.62;;;21.90;43.30;;;;;;2309472;55;21536;-69
2023/06/27 04:03:37;;;;;;;2.83;0.85;;;21.90;43.30;;;;;;2308105;55;20975;-67
2023/06/27 04:06:03;;;;;;;2.08;0.75;;;21.90;43.40;;;;;;2308638;55;21875;-69
2023/06/27 04:08:30;;;;;;;1.52;0.60;;;21.90;43.40;;;;;;2547009;54;21012;-67
2023/06/27 04:10:57;;;;;;;2.05;0.75;;;21.90;43.40;;;;;;2546549;54;20968;-68
2023/06/27 04:13:23;;;;;;;1.40;0.50;;;21.90;43.40;;;;;;2546787;54;21035;-68
2023/06/27 04:15:49;;;;;;;1.85;0.70;;;21.90;43.40;;;;;;2546452;54;20940;-68
2023/06/27 04:18:16;;;;;;;1.87;0.60;;;21.90;43.50;;;;;;2539621;54;20953;-68
2023/06/27 04:20:45;;;;;;;2.53;0.70;;;21.90;43.50;;;;;;2282217;55;21026;-68
2023/06/27 04:23:12;;;;;;;1.83;0.68;;;21.90;43.60;;;;;;2281628;55;20942;-68
2023/06/27 04:25:43;;;;;;;3.92;0.80;;;21.90;43.60;;;;;;2285560;55;20994;-68
2023/06/27 04:28:09;;;;;;;2.28;0.77;;;21.90;43.70;;;;;;2288858;55;21009;-67
2023/06/27 04:30:37;;;;;;;2.65;1.00;;;21.90;43.80;;;;;;2248970;56;21495;-68
2023/06/27 04:33:04;;;;;;;2.62;0.70;;;21.90;43.90;;;;;;2531728;54;21909;-68
2023/06/27 04:35:31;;;;;;;2.62;0.70;;;21.90;43.90;;;;;;2546904;54;20951;-69
2023/06/27 04:37:57;;;;;;;2.08;0.80;;;21.70;43.70;;;;;;2308804;55;20932;-67
2023/06/27 04:40:23;;;;;;;1.80;0.60;;;21.90;43.90;;;;;;2308245;55;20963;-69
2023/06/27 04:42:50;;;;;;;1.73;0.60;;;21.90;43.90;;;;;;2287259;55;21041;-67
2023/06/27 04:45:17;;;;;;;2.15;0.70;;;21.90;44.00;;;;;;2503596;54;20947;-68
2023/06/27 04:47:43;;;;;;;1.98;0.62;;;21.90;44.10;;;;;;2505941;55;21801;-68
2023/06/27 04:50:18;;;;;;;2.17;0.70;;;21.90;44.10;;;;;;2515907;55;20958;-68
2023/06/27 04:52:44;;;;;;;2.92;0.95;;;22.00;44.30;;;;;;2513394;55;21001;-67
2023/06/27 04:55:12;;;;;;;2.37;0.60;;;22.00;44.20;;;;;;2282033;55;20966;-69
2023/06/27 04:57:39;;;;;;;1.37;0.50;;;22.00;44.20;;;;;;2479766;55;20960;-68
2023/06/27 05:00:09;;;;;;;1.92;0.50;;;22.00;44.30;;;;;;2545702;54;20955;-69
2023/06/27 05:02:37;;;;;;;4.10;0.90;;;22.00;44.20;;;;;;2523305;54;20923;-67
2023/06/27 05:05:10;;;;;;;2.20;0.80;;;22.00;44.30;;;;;;2519533;54;21106;-68
2023/06/27 05:07:37;;;;;;;2.05;0.70;;;22.00;44.30;;;;;;2295270;55;21863;-67
2023/06/27 05:10:07;;;;;;;1.65;0.70;;;22.00;44.30;;;;;;2515338;55;21002;-69
2023/06/27 05:12:36;;;;;;;1.90;0.75;;;22.00;44.30;;;;;;2282819;55;21096;-67
2023/06/27 05:15:04;;;;;;;2.22;0.82;;;22.10;44.40;;;;;;2516153;55;21359;-68
2023/06/27 05:17:30;;;;;;;2.15;0.60;;;22.10;44.50;;;;;;2282633;55;20974;-67
2023/06/27 05:19:57;;;;;;;1.80;0.70;;;22.10;44.50;;;;;;2285213;55;21808;-68
2023/06/27 05:22:23;;;;;;;1.75;0.62;;;22.10;44.60;;;;;;2281467;56;21535;-68
2023/06/27 05:24:51;;;;;;;2.75;0.90;;;22.10;44.60;;;;;;2289581;55;20934;-68
2023/06/27 05:27:19;;;;;;;2.58;0.80;;;22.20;44.80;;;;;;2258540;56;20962;-68
2023/06/27 05:29:45;;;;;;;1.70;0.70;;;22.20;44.80;;;;;;2282150;56;20942;-67
2023/06/27 05:32:11;;;;;;;1.90;0.70;;;22.20;44.80;;;;;;2515637;55;20978;-67
2023/06/27 05:34:39;;;;;;;2.00;0.70;;;22.20;44.80;;;;;;2285947;55;20970;-68
2023/06/27 05:37:05;;;;;;;3.15;0.82;;;22.20;44.90;;;;;;2547033;54;20975;-66
2023/06/27 05:39:32;;;;;;;2.85;0.60;;;22.30;45.10;;;;;;2308808;55;21413;-67
2023/06/27 05:41:59;;;;;;;2.37;0.80;;;22.30;45.20;;;;;;2519218;54;20958;-68
2023/06/27 05:44:25;;;;;;;4.12;0.70;;;22.30;45.20;;;;;;2521610;54;21630;-67
2023/06/27 05:46:52;;;;;;;3.70;0.77;;;22.40;45.20;;;;;;2497695;55;20929;-68
2023/06/27 05:49:18;;;;;;;1.98;0.62;;;22.40;45.10;;;;;;2496944;55;20942;-68
2023/06/27 05:51:44;;;;;;;2.85;0.77;;;22.40;45.10;;;;;;2515567;55;21034;-69
2023/06/27 05:54:11;;;;;;;2.22;0.80;;;22.50;45.10;;;;;;2282321;55;20957;-69
2023/06/27 05:56:38;;;;;;;1.90;0.73;;;22.50;45.00;;;;;;2514726;55;20977;-69
2023/06/27 05:59:04;;;;;;;2.92;0.88;;;22.60;45.20;;;;;;2515515;55;20962;-69
2023/06/27 06:01:34;;;;;;;2.25;0.70;;;22.60;45.10;;;;;;2515104;55;20999;-70
2023/06/27 06:04:01;;;;;;;2.90;0.70;;;22.60;45.00;;;;;;2516363;55;20946;-69
2023/06/27 06:06:28;;;;;;;2.85;0.80;;;22.70;45.40;;;;;;2284180;55;21910;-70
2023/06/27 06:08:55;;;;;;;1.58;0.60;;;22.70;44.90;;;;;;2516073;55;20963;-69
2023/06/27 06:11:22;;;;;;;1.48;0.50;;;22.70;44.90;;;;;;2300813;55;20973;-67
2023/06/27 06:13:50;;;;;;;3.33;0.88;;;22.70;44.70;;;;;;2477916;55;20975;-68
2023/06/27 06:16:19;;;;;;;3.25;0.80;;;22.70;44.60;;;;;;2516202;55;21796;-67
2023/06/27 06:18:46;;;;;;;2.28;0.80;;;22.80;44.60;;;;;;2283593;55;21060;-67
2023/06/27 06:21:18;;;;;;;2.80;0.90;;;22.80;44.50;;;;;;2283738;55;20968;-68
2023/06/27 06:23:44;;;;;;;2.22;0.80;;;22.80;44.50;;;;;;2281676;55;20986;-68
2023/06/27 06:26:11;;;;;;;2.40;0.90;;;22.80;44.40;;;;;;2282715;55;21012;-69
2023/06/27 06:28:38;;;;;;;3.17;0.82;;;22.80;44.30;;;;;;2282428;55;20987;-68
2023/06/27 06:31:05;;;;;;;2.28;0.95;;;22.90;44.40;;;;;;2515793;55;21043;-68
2023/06/27 06:33:32;;;;;;;3.80;0.82;;;22.90;44.30;;;;;;2512772;54;20972;-67
2023/06/27 06:35:58;;;;;;;2.97;0.90;;;22.90;44.20;;;;;;2515872;55;20943;-68
2023/06/27 06:38:25;;;;;;;2.67;0.90;;;22.90;44.20;;;;;;2515089;55;20978;-67
2023/06/27 06:40:53;;;;;;;2.97;0.80;;;22.90;44.20;;;;;;2516104;55;21071;-68
2023/06/27 06:43:22;;;;;;;2.95;0.90;;;22.90;44.20;;;;;;2516122;54;21397;-68
2023/06/27 06:45:49;;;;;;;4.10;0.90;;;22.90;44.20;;;;;;2514467;54;20940;-67
2023/06/27 06:48:17;;;;;;;3.65;0.82;;;23.00;44.30;;;;;;2275966;55;21499;-69
2023/06/27 06:50:44;;;;;;;2.12;0.70;;;23.00;44.30;;;;;;2515952;55;21076;-68
2023/06/27 06:53:13;;;;;;;1.90;0.68;;;23.00;44.30;;;;;;2516155;55;20932;-67
2023/06/27 06:55:39;;;;;;;2.30;0.88;;;23.00;44.30;;;;;;2282820;55;20983;-67
2023/06/27 06:58:06;;;;;;;2.83;0.85;;;23.10;44.30;;;;;;2283218;55;21004;-67
2023/06/27 07:00:32;;;;;;;2.30;0.85;;;23.10;44.30;;;;;;2515746;55;21059;-68
2023/06/27 07:02:58;;;;;;;3.58;1.00;;;23.10;44.30;;;;;;2515976;55;21008;-67
2023/06/27 07:05:27;;;;;;;2.25;0.70;;;23.10;44.20;;;;;;2515829;54;20972;-68
2023/06/27 07:07:55;;;;;;;2.92;1.20;;;23.10;44.10;;;;;;2508121;54;20982;-69
2023/06/27 07:10:22;;;;;;;2.97;1.12;;;23.20;44.10;;;;;;2533593;54;20916;-68
2023/06/27 07:12:48;;;;;;;2.97;1.02;;;23.20;43.90;;;;;;2546196;54;20936;-68
2023/06/27 07:15:17;;;;;;;2.35;0.98;;;23.20;43.80;;;;;;2501273;54;21011;-68
2023/06/27 07:17:43;;;;;;;2.70;0.85;;;23.20;43.80;;;;;;2511232;55;21022;-68
2023/06/27 07:20:11;;;;;;;2.47;0.82;;;23.30;43.90;;;;;;2256161;55;20961;-68
2023/06/27 07:22:38;;;;;;;4.05;1.70;;;23.30;43.90;;;;;;2283709;56;20980;-68
2023/06/27 07:25:06;;;;;;;5.12;1.17;;;23.30;43.90;;;;;;2308954;55;21091;-67
2023/06/27 07:27:33;;;;;;;2.35;0.85;;;23.40;44.00;;;;;;2527594;54;20962;-67
2023/06/27 07:29:59;;;;;;;2.65;0.85;;;23.40;43.80;;;;;;2528516;54;20948;-68
2023/06/27 07:32:26;;;;;;;2.37;0.77;;;23.40;43.90;;;;;;2515667;54;20939;-68
2023/06/27 07:34:52;;;;;;;2.42;1.17;;;23.50;43.80;;;;;;2516234;55;20944;-67
2023/06/27 07:37:19;;;;;;;3.50;1.15;;;23.50;43.70;;;;;;2529297;54;20990;-69
2023/06/27 07:39:45;;;;;;;2.40;1.00;;;23.50;43.60;;;;;;2524836;54;21787;-68
2023/06/27 07:42:17;;;;;;;2.70;1.00;;;23.50;43.70;;;;;;2547781;54;21002;-67
2023/06/27 07:44:44;;;;;;;3.40;0.97;;;23.60;43.70;;;;;;2285240;56;21702;-70
2023/06/27 07:47:10;;;;;;;2.67;0.95;;;23.60;43.60;;;;;;2292530;55;20990;-68
2023/06/27 07:49:40;;;;;;;2.22;0.82;;;23.60;43.50;;;;;;2281918;55;20946;-69
2023/06/27 07:52:07;;;;;;;3.55;1.33;;;23.70;43.60;;;;;;2309711;55;20960;-68
2023/06/27 07:54:37;;;;;;;2.42;0.93;;;23.70;43.60;;;;;;2308318;55;20920;-68
2023/06/27 07:57:08;;;;;;;4.32;1.05;;;23.80;43.70;;;;;;2534601;54;20983;-68
2023/06/27 07:59:37;;;;;;;2.90;0.98;;;23.80;44.00;;;;;;2523030;54;21048;-69
2023/06/27 08:02:04;;;;;;;2.15;0.77;;;23.80;43.90;;;;;;2514687;55;21066;-67
2023/06/27 08:04:32;;;;;;;2.90;1.05;;;23.90;43.90;;;;;;2282864;56;20978;-68
2023/06/27 08:06:59;;;;;;;3.72;0.90;;;23.90;43.90;;;;;;2529498;54;20992;-69
2023/06/27 08:09:25;;;;;;;2.10;0.90;;;24.00;43.90;;;;;;2511741;55;22021;-68
2023/06/27 08:11:54;;;;;;;3.67;0.93;;;24.10;43.70;;;;;;2270807;56;20998;-67
2023/06/27 08:14:20;;;;;;;4.53;0.98;;;24.10;43.60;;;;;;2503983;54;20930;-68
2023/06/27 08:16:47;;;;;;;3.67;1.17;;;24.10;43.50;;;;;;2544792;54;20928;-69
2023/06/27 08:19:14;;;;;;;3.58;1.17;;;24.20;43.50;;;;;;2515192;55;20975;-67
2023/06/27 08:21:44;;;;;;;4.68;1.05;;;24.20;43.60;;;;;;2515450;55;20998;-69
2023/06/27 08:24:11;;;;;;;2.83;1.05;;;24.30;43.70;;;;;;2282848;56;21053;-67
2023/06/27 08:26:37;;;;;;;3.28;1.20;;;24.30;43.70;;;;;;2277437;55;20953;-69
2023/06/27 08:29:05;;;;;;;3.35;0.80;;;24.30;43.50;;;;;;2267897;55;20993;-68
2023/06/27 08:31:32;;;;;;;2.87;1.00;;;24.40;43.90;;;;;;2518485;54;21036;-67
2023/06/27 08:33:58;;;;;;;2.17;0.82;;;24.40;43.20;;;;;;2255123;56;20923;-68
2023/06/27 08:36:24;;;;;;;1.73;0.70;;;24.40;43.20;;;;;;2545779;54;21641;-69
2023/06/27 08:38:51;;;;;;;2.42;0.80;;;24.40;43.40;;;;;;2243694;54;2726449;-70
2023/06/27 08:41:20;;;;;;;2.87;1.05;;;24.50;43.50;;;;;;2515416;55;20954;-68
2023/06/27 08:43:47;;;;;;;2.75;0.80;;;24.50;43.30;;;;;;2284778;55;20950;-67
2023/06/27 08:46:13;;;;;;;2.87;0.80;;;24.60;43.30;;;;;;2277413;55;21321;-69
2023/06/27 08:48:43;;;;;;;2.47;0.80;;;24.60;43.20;;;;;;2489959;54;21393;-68
2023/06/27 08:51:11;;;;;;;2.42;1.00;;;24.70;43.00;;;;;;2505904;54;21032;-66
2023/06/27 08:53:38;;;;;;;2.17;0.80;;;24.70;42.90;;;;;;2486682;54;20953;-69
2023/06/27 08:56:10;;;;;;;2.03;0.75;;;24.80;42.80;;;;;;2516428;55;20929;-69
2023/06/27 08:58:52;;;;;;;2.75;0.93;;;24.80;42.70;;;;;;2516140;55;20988;-69
2023/06/27 09:01:19;;;;;;;2.80;0.95;;;24.90;42.60;;;;;;2515562;55;20966;-68
2023/06/27 09:03:46;;;;;;;2.65;0.90;;;24.90;42.60;;;;;;2282471;55;20966;-67
2023/06/27 09:06:14;;;;;;;5.72;1.25;;;24.90;42.60;;;;;;2282068;55;20993;-68
2023/06/27 09:08:42;;;;;;;3.35;1.10;;;25.00;42.70;;;;;;2514753;55;21403;-69
2023/06/27 09:11:10;;;;;;;2.72;0.93;;;25.00;42.60;;;;;;2516669;55;20942;-70
2023/06/27 09:13:37;;;;;;;2.00;0.77;;;25.00;42.50;;;;;;2514870;55;21022;-69
2023/06/27 09:16:08;;;;;;;2.75;0.90;;;25.10;42.50;;;;;;2516071;55;20990;-69
2023/06/27 09:18:38;;;;;;;2.33;0.82;;;25.20;42.50;;;;;;2271232;55;20997;-70
2023/06/27 09:21:05;;;;;;;2.35;0.90;;;25.20;42.30;;;;;;2267833;55;20942;-68
2023/06/27 09:23:31;;;;;;;2.80;0.88;;;25.30;42.20;;;;;;2503926;54;21051;-69
2023/06/27 09:26:10;;;;;;;3.22;0.80;;;25.30;42.10;;;;;;2272836;55;20953;-68
2023/06/27 09:29:01;;;;;;;4.37;1.17;;;25.40;42.00;;;;;;2515253;55;21042;-69
2023/06/27 09:31:29;;;;;;;2.40;0.98;;;25.40;42.10;;;;;;2515234;55;21819;-69
2023/06/27 09:34:06;;;;;;;2.53;0.80;;;25.50;42.30;;;;;;2281144;55;21590;-67
2023/06/27 09:36:35;;;;;;;2.70;0.82;;;25.50;42.00;;;;;;2281847;55;20989;-69
2023/06/27 09:39:05;;;;;;;2.05;0.65;;;25.60;42.10;;;;;;2515930;55;20954;-69
2023/06/27 09:41:44;;;;;;;2.58;0.90;;;25.70;42.10;;;;;;2515441;55;20966;-69
2023/06/27 09:44:19;;;;;;;2.90;0.93;;;25.70;41.90;;;;;;2515900;55;20978;-69
2023/06/27 09:46:49;;;;;;;1.87;0.70;;;25.80;41.80;;;;;;2515072;55;20969;-68
2023/06/27 09:49:16;;;;;;;4.40;1.08;;;25.80;41.70;;;;;;2515642;55;21646;-69
2023/06/27 09:51:53;;;;;;;3.05;0.82;;;25.90;41.70;;;;;;2282223;55;21022;-68
2023/06/27 09:54:23;;;;;;;3.05;0.90;;;25.90;41.40;;;;;;2514108;55;21002;-69
2023/06/27 09:56:56;;;;;;;6.65;1.00;;;26.00;41.50;;;;;;2485160;54;21747;-69
2023/06/27 09:59:26;;;;;;;3.75;0.90;;;26.00;41.30;;;;;;2306934;55;21683;-68
2023/06/27 10:01:55;;;;;;;4.12;1.10;;;26.10;41.10;;;;;;2282897;56;20997;-68
2023/06/27 10:04:21;;;;;;;3.17;1.15;;;26.10;41.10;;;;;;2306587;55;21440;-68
2023/06/27 10:07:00;;;;;;;2.92;1.00;;;26.20;41.00;;;;;;2300393;55;21070;-68
2023/06/27 10:09:27;;;;;;;2.33;0.70;;;26.20;41.00;;;;;;2515611;55;21015;-69
2023/06/27 10:11:53;;;;;;;4.68;0.90;;;26.30;41.00;;;;;;2544900;54;20983;-67
2023/06/27 10:14:21;;;;;;;3.35;0.82;;;26.30;40.90;;;;;;2539755;54;21006;-69
2023/06/27 10:16:48;;;;;;;2.90;0.88;;;26.30;40.60;;;;;;2515149;55;21401;-69
2023/06/27 10:19:14;;;;;;;2.87;1.23;;;26.40;40.60;;;;;;2529423;54;21419;-69
2023/06/27 10:21:41;;;;;;;2.25;0.90;;;26.40;40.40;;;;;;2547104;54;20944;-69
2023/06/27 10:24:08;;;;;;;3.22;1.02;;;26.40;40.30;;;;;;2516519;55;20954;-68
2023/06/27 10:26:34;;;;;;;2.37;1.10;;;26.50;40.40;;;;;;2515385;55;21423;-69
2023/06/27 10:29:13;;;;;;;2.45;0.90;;;26.50;40.10;;;;;;2282713;55;20982;-69
2023/06/27 10:31:45;;;;;;;2.67;0.82;;;26.50;39.80;;;;;;2514746;55;20993;-70
2023/06/27 10:34:20;;;;;;;3.47;0.90;;;26.60;39.90;;;;;;2283232;55;20942;-68
2023/06/27 10:37:05;;;;;;;2.30;0.80;;;26.60;40.10;;;;;;2515565;55;21688;-70
2023/06/27 10:39:40;;;;;;;2.55;0.73;;;26.60;39.20;;;;;;2282813;55;21159;-69
2023/06/27 10:42:15;;;;;;;2.10;0.70;;;26.60;39.50;;;;;;2516093;55;21029;-68
2023/06/27 10:45:09;;;;;;;1.42;0.57;;;26.60;39.40;;;;;;2514205;55;21074;-70
2023/06/27 10:47:41;;;;;;;2.78;1.08;;;26.70;39.00;;;;;;2514716;55;21538;-70
2023/06/27 10:50:10;;;;;;;2.35;0.90;;;26.70;39.90;;;;;;2282294;56;21028;-69
2023/06/27 10:52:36;;;;;;;2.40;0.80;;;26.70;39.20;;;;;;2514609;55;21028;-68
2023/06/27 10:55:19;;;;;;;2.45;0.80;;;26.70;39.30;;;;;;2515043;55;20987;-69
2023/06/27 10:57:49;;;;;;;2.85;0.90;;;26.70;38.70;;;;;;2514940;55;20928;-68
2023/06/27 11:00:28;;;;;;;2.00;0.70;;;26.80;38.90;;;;;;2516071;55;20960;-70
2023/06/27 11:02:55;;;;;;;1.90;0.80;;;26.80;38.50;;;;;;2504502;55;21026;-68
2023/06/27 11:05:59;;;;;;;2.30;0.90;;;26.80;38.70;;;;;;2514168;55;20986;-66
2023/06/27 11:08:32;;;;;;;3.05;0.90;;;26.90;38.30;;;;;;2535059;54;20968;-67
2023/06/27 11:11:25;;;;;;;1.98;0.73;;;26.90;38.90;;;;;;2487474;55;21002;-69
2023/06/27 11:13:57;;;;;;;2.90;0.93;;;27.00;39.10;;;;;;2542966;54;20951;-68
2023/06/27 11:16:24;;;;;;;;;;;27.00;38.90;;;;;;2288734;56;20914;-69
2023/06/27 11:18:53;;;;;;;2.65;0.80;;;27.10;38.80;;;;;;2515464;55;20065;-68
2023/06/27 11:21:20;;;;;;;2.37;0.70;;;27.10;38.40;;;;;;2282636;56;20966;-69
2023/06/27 11:23:49;;;;;;;2.33;0.80;;;27.10;38.30;;;;;;2255511;55;20953;-67
2023/06/27 11:26:21;;;;;;;3.17;1.10;;;27.10;38.10;;;;;;2516750;54;20916;-69
2023/06/27 11:28:48;;;;;;;1.92;0.82;;;27.10;37.90;;;;;;2529374;54;20944;-68
2023/06/27 11:31:16;;;;;;;2.45;0.90;;;27.20;38.20;;;;;;2548032;54;21016;-70
2023/06/27 11:33:43;;;;;;;4.07;0.80;;;27.20;38.30;;;;;;2308046;55;20963;-70
2023/06/27 11:36:09;;;;;;;2.37;0.80;;;27.20;38.20;;;;;;2521184;54;20986;-68
2023/06/27 11:38:36;;;;;;;2.60;0.98;;;27.20;38.30;;;;;;2291035;55;20940;-68
2023/06/27 11:41:02;;;;;;;4.03;1.50;;;27.20;38.30;;;;;;2531263;54;20939;-68
2023/06/27 11:43:32;;;;;;;5.30;1.15;;;27.30;38.20;;;;;;2518087;54;21033;-67
2023/06/27 11:46:00;;;;;;;2.33;0.93;;;27.30;38.20;;;;;;2523923;54;21007;-67
2023/06/27 11:48:27;;;;;;;2.33;0.90;;;27.40;38.30;;;;;;2514366;55;21047;-68
2023/06/27 11:51:06;;;;;;;3.17;0.98;;;27.40;38.00;;;;;;2515171;55;21001;-68
2023/06/27 11:53:38;;;;;;;2.08;1.00;;;27.50;37.80;;;;;;2520885;54;21045;-67
2023/06/27 11:56:05;;;;;;;3.33;0.98;;;27.60;37.80;;;;;;2260163;56;21765;-68
2023/06/27 11:58:39;;;;;;;2.00;0.75;;;27.60;37.60;;;;;;2515224;55;20922;-70
2023/06/27 12:01:13;;;;;;;2.28;0.70;;;27.60;37.40;;;;;;2515311;55;21026;-70
2023/06/27 12:03:40;;;;;;;2.45;0.80;;;27.60;36.90;;;;;;2281106;55;20930;-68
2023/06/27 12:06:24;;;;;;;2.37;0.70;;;27.60;37.20;;;;;;2514968;55;20954;-69
2023/06/27 12:08:51;;;;;;;2.20;0.80;;;27.70;36.80;;;;;;2515054;55;20954;-69
2023/06/27 12:11:38;;;;;;;2.30;0.70;;;27.70;37.20;;;;;;2280961;55;21227;-68
2023/06/27 12:14:04;;;;;;;1.75;0.70;;;27.70;37.30;;;;;;2301407;55;21028;-69
2023/06/27 12:16:33;;;;;;;1.75;0.70;;;27.80;37.30;;;;;;2517018;54;21792;-68
2023/06/27 12:19:09;;;;;;;7.40;0.82;;;27.80;37.10;;;;;;2514731;55;20970;-70
2023/06/27 12:21:35;;;;;;;2.55;0.70;;;27.90;36.50;;;;;;2538432;54;21817;-68
2023/06/27 12:24:02;;;;;;;2.45;0.73;;;27.90;36.70;;;;;;2516649;54;21066;-69
2023/06/27 12:26:29;;;;;;;1.80;0.73;;;27.90;36.40;;;;;;2523933;54;21134;-71
2023/06/27 12:29:04;;;;;;;4.05;0.80;;;27.90;36.30;;;;;;2538282;54;20986;-70
2023/06/27 12:31:31;;;;;;;2.83;0.90;;;27.90;36.10;;;;;;2514426;55;21034;-70
2023/06/27 12:33:59;;;;;;;3.87;0.90;;;28.00;36.30;;;;;;2281488;56;21455;-70
2023/06/27 12:36:25;;;;;;;2.87;0.73;;;27.90;36.20;;;;;;2281863;56;21791;-70
2023/06/27 12:38:56;;;;;;;1.65;0.70;;;27.90;35.90;;;;;;2281988;56;21009;-69
2023/06/27 12:41:22;;;;;;;2.65;0.80;;;28.00;35.90;;;;;;2514771;55;21065;-69
2023/06/27 12:43:49;;;;;;;2.70;1.00;;;28.00;35.80;;;;;;2496360;55;20926;-69
2023/06/27 12:46:15;;;;;;;2.58;0.80;;;28.00;35.80;;;;;;2502705;54;21755;-69
2023/06/27 12:48:43;;;;;;;3.95;1.00;;;28.10;35.80;;;;;;2540155;54;20911;-69
2023/06/27 12:51:11;;;;;;;2.05;0.70;;;28.10;35.90;;;;;;2282209;55;21030;-69
2023/06/27 12:53:37;;;;;;;2.12;0.70;;;28.10;36.10;;;;;;2281327;56;20954;-68
2023/06/27 12:56:05;;;;;;;3.35;0.88;;;28.10;35.90;;;;;;2544419;54;20987;-70
2023/06/27 12:58:33;;;;;;;2.95;0.85;;;28.20;35.60;;;;;;2300100;55;20974;-69